createdAt,value
2023-01-06T00:03:02.470Z,100334.28
2023-01-06T00:07:05.875Z,100332.50
2023-01-06T00:11:10.196Z,100333.31
2023-01-06T00:15:15.391Z,100338.50
2023-01-06T00:19:18.425Z,100349.81
2023-01-06T00:23:21.425Z,100341.03
2023-01-06T00:27:24.599Z,100348.88
2023-01-06T00:31:30.127Z,100349.78
2023-01-06T00:35:33.546Z,100359.38
2023-01-06T00:39:36.747Z,100363.69
2023-01-06T00:43:39.837Z,100354.03
2023-01-06T00:47:44.680Z,100370.66
2023-01-06T00:51:48.013Z,100359.34
2023-01-06T00:55:51.248Z,100362.84
2023-01-06T00:59:54.777Z,100356.69
2023-01-06T01:03:59.218Z,100361.94
2023-01-06T01:08:02.213Z,100366.31
2023-01-06T01:12:12.533Z,100371.66
2023-01-06T01:16:15.648Z,100369.06
2023-01-06T01:20:20.311Z,100377.88
2023-01-06T01:24:24.013Z,100383.16
2023-01-06T01:28:27.058Z,100379.69
2023-01-06T01:32:30.058Z,100376.22
2023-01-06T01:36:35.863Z,100371.00
2023-01-06T01:40:38.891Z,100372.72
2023-01-06T01:44:59.494Z,100375.44
2023-01-06T01:49:08.011Z,100377.25
2023-01-06T01:53:16.834Z,100376.44
2023-01-06T01:57:24.825Z,100364.19
2023-01-06T02:01:28.310Z,100372.97
2023-01-06T02:05:32.222Z,100380.00
2023-01-06T02:09:41.509Z,100374.75
2023-01-06T02:13:47.551Z,100389.63
2023-01-06T02:18:27.011Z,100393.09
2023-01-06T02:22:50.758Z,100395.66
2023-01-06T02:27:38.881Z,100391.25
2023-01-06T02:31:59.370Z,100392.06
2023-01-06T02:36:19.104Z,100397.22
2023-01-06T02:40:34.857Z,100397.16
2023-01-06T02:44:46.714Z,100391.84
2023-01-06T02:49:07.430Z,100389.22
2023-01-06T02:53:19.584Z,100389.25
2023-01-06T02:57:31.232Z,100392.78
2023-01-06T03:01:40.821Z,100384.00
2023-01-06T03:05:49.315Z,100388.38
2023-01-06T03:09:55.162Z,100387.44
2023-01-06T03:14:04.122Z,100384.72
2023-01-06T03:18:07.737Z,100381.19
2023-01-06T03:22:14.212Z,100384.56
2023-01-06T03:26:18.085Z,100386.19
2023-01-06T03:30:22.788Z,100388.75
2023-01-06T03:34:44.644Z,100383.50
2023-01-06T03:38:57.512Z,100391.38
2023-01-06T03:43:16.492Z,100399.25
2023-01-06T03:47:28.560Z,100398.34
2023-01-06T03:51:50.242Z,100407.13
2023-01-06T03:56:02.526Z,100408.06
2023-01-06T04:00:10.364Z,100415.03
2023-01-06T04:04:26.914Z,100406.97
2023-01-06T04:08:30.232Z,100407.75
2023-01-06T04:12:41.828Z,100410.25
2023-01-06T04:16:49.771Z,100407.47
2023-01-06T04:20:52.914Z,100402.94
2023-01-06T04:25:02.100Z,100401.91
2023-01-06T04:29:06.888Z,100400.75
2023-01-06T04:33:10.496Z,100405.81
2023-01-06T04:37:16.768Z,100407.34
2023-01-06T04:41:19.880Z,100411.38
2023-01-06T04:45:24.404Z,100411.22
2023-01-06T04:49:27.525Z,100415.47
2023-01-06T04:53:30.627Z,100426.69
2023-01-06T04:57:33.660Z,100420.41
2023-01-06T05:01:38.198Z,100421.13
2023-01-06T05:05:41.269Z,100421.66
2023-01-06T05:09:44.321Z,100429.88
2023-01-06T05:13:47.473Z,100430.66
2023-01-06T05:17:51.889Z,100438.53
2023-01-06T05:21:54.925Z,100432.31
2023-01-06T05:25:58.021Z,100428.75
2023-01-06T05:30:01.040Z,100431.22
2023-01-06T05:34:05.465Z,100425.84
2023-01-06T05:38:08.830Z,100432.69
2023-01-06T05:42:11.838Z,100438.56
2023-01-06T05:46:14.986Z,100446.13
2023-01-06T05:56:02.362Z,100443.25
2023-01-06T06:00:06.609Z,100443.22
2023-01-06T06:04:15.136Z,100443.75
2023-01-06T06:08:18.274Z,100438.25
2023-01-06T06:12:22.640Z,100447.53
2023-01-06T06:16:27.545Z,100448.34
2023-01-06T06:20:30.866Z,100448.34
2023-01-06T06:24:33.908Z,100463.34
2023-01-06T06:28:39.540Z,100454.56
2023-01-06T06:32:42.968Z,100458.31
2023-01-06T06:36:46.206Z,100459.34
2023-01-06T06:40:49.413Z,100456.09
2023-01-06T06:44:54.142Z,100464.06
2023-01-06T06:48:57.158Z,100463.34
2023-01-06T06:53:00.446Z,100468.56
2023-01-06T06:57:03.645Z,100474.72
2023-01-06T07:01:09.584Z,100470.25
2023-01-06T07:05:12.688Z,100475.69
2023-01-06T07:09:15.717Z,100471.53
2023-01-06T07:13:18.947Z,100481.31
2023-01-06T07:17:28.597Z,100488.44
2023-01-06T07:21:31.614Z,100492.00
2023-01-06T07:25:34.660Z,100482.53
2023-01-06T07:29:37.755Z,100483.56
2023-01-06T07:33:42.136Z,100485.44
2023-01-06T07:37:45.631Z,100482.13
2023-01-06T07:41:48.691Z,100484.91
2023-01-06T07:45:52.443Z,100485.00
2023-01-06T07:49:56.956Z,100489.47
2023-01-06T07:54:00.003Z,100491.34
2023-01-06T07:58:05.926Z,100500.94
2023-01-06T08:02:11.805Z,100496.66
2023-01-06T08:06:16.225Z,100504.66
2023-01-06T08:10:19.360Z,100502.00
2023-01-06T08:14:22.875Z,100503.75
2023-01-06T08:18:26.088Z,100503.75
2023-01-06T08:22:30.526Z,100492.53
2023-01-06T08:26:33.733Z,100498.75
2023-01-06T08:30:40.118Z,100503.97
2023-01-06T08:34:43.751Z,100489.94
2023-01-06T08:38:48.571Z,100496.91
2023-01-06T08:42:51.663Z,100502.13
2023-01-06T08:46:54.788Z,100486.50
2023-01-06T08:51:02.658Z,100493.50
2023-01-06T08:55:07.550Z,100490.13
2023-01-06T08:59:14.931Z,100497.28
2023-01-06T09:03:18.119Z,100501.72
2023-01-06T09:07:21.284Z,100505.38
2023-01-06T09:11:25.794Z,100498.56
2023-01-06T09:15:28.872Z,100501.38
2023-01-06T09:19:32.080Z,100499.84
2023-01-06T09:23:35.332Z,100500.03
2023-01-06T09:27:39.839Z,100502.75
2023-01-06T09:31:43.048Z,100487.16
2023-01-06T09:35:46.837Z,100486.38
2023-01-06T09:39:49.886Z,100483.75
2023-01-06T09:43:59.720Z,100471.50
2023-01-06T09:48:08.161Z,100465.56
2023-01-06T09:52:18.602Z,100463.09
2023-01-06T09:56:25.620Z,100454.50
2023-01-06T10:00:36.563Z,100457.31
2023-01-06T10:04:39.712Z,100460.13
2023-01-06T10:08:55.962Z,100452.41
2023-01-06T10:13:11.865Z,100453.38
2023-01-06T10:17:49.674Z,100455.31
2023-01-06T10:22:05.266Z,100441.44
2023-01-06T10:26:13.731Z,100437.16
2023-01-06T10:30:20.927Z,100434.66
2023-01-06T10:34:27.572Z,100427.88
2023-01-06T10:38:36.391Z,100413.16
2023-01-06T10:43:00.212Z,100416.00
2023-01-06T10:47:03.771Z,100408.34
2023-01-06T10:51:33.890Z,100410.31
2023-01-06T10:55:41.913Z,100393.84
2023-01-06T11:00:16.471Z,100385.28
2023-01-06T11:04:20.089Z,100374.09
2023-01-06T11:08:24.589Z,100372.50
2023-01-06T11:12:32.300Z,100367.38
2023-01-06T11:16:38.056Z,100354.34
2023-01-06T11:20:41.618Z,100359.75
2023-01-06T11:24:54.246Z,100360.69
2023-01-06T11:28:57.620Z,100354.63
2023-01-06T11:33:00.725Z,100345.03
2023-01-06T11:37:03.948Z,100338.97
2023-01-06T11:41:11.987Z,100332.84
2023-01-06T11:45:32.063Z,100323.25
2023-01-06T11:49:38.325Z,100322.44
2023-01-06T11:53:55.396Z,100307.56
2023-01-06T11:58:06.263Z,100292.69
2023-01-06T12:02:17.164Z,100298.00
2023-01-06T12:06:30.467Z,100301.56
2023-01-06T12:10:35.374Z,100293.69
2023-01-06T12:14:40.807Z,100296.38
2023-01-06T12:18:44.488Z,100291.16
2023-01-06T12:22:51.148Z,100300.00
2023-01-06T12:26:54.934Z,100299.16
2023-01-06T12:31:07.602Z,100306.25
2023-01-06T12:35:16.508Z,100316.81
2023-01-06T12:39:26.485Z,100308.09
2023-01-06T12:43:35.034Z,100304.63
2023-01-06T12:47:45.636Z,100303.75
2023-01-06T12:51:53.281Z,100300.28
2023-01-06T12:56:18.243Z,100291.44
2023-01-06T13:00:39.490Z,100280.91
2023-01-06T13:05:08.432Z,100278.31
2023-01-06T13:09:24.427Z,100271.28
2023-01-06T13:13:39.622Z,100262.50
2023-01-06T13:17:48.286Z,100266.91
2023-01-06T13:21:56.815Z,100261.63
2023-01-06T13:26:24.930Z,100259.03
2023-01-06T13:30:50.928Z,100255.53
2023-01-06T13:35:14.546Z,100248.53
2023-01-06T13:39:24.476Z,100242.38
2023-01-06T13:43:30.953Z,100252.94
2023-01-06T13:47:36.811Z,100245.91
2023-01-06T13:51:42.522Z,100242.41
2023-01-06T13:55:47.540Z,100230.13
2023-01-06T13:59:51.650Z,100235.38
2023-01-06T14:03:56.509Z,100233.69
2023-01-06T14:08:01.760Z,100237.25
2023-01-06T14:12:11.507Z,100232.81
2023-01-06T14:16:15.300Z,100226.66
2023-01-06T14:20:29.111Z,100229.28
2023-01-06T14:24:36.082Z,100232.78
2023-01-06T14:28:40.600Z,100237.19
2023-01-06T14:33:04.703Z,100229.28
2023-01-06T14:37:13.540Z,100225.75
2023-01-06T14:41:21.735Z,100235.41
2023-01-06T14:45:29.264Z,100238.06
2023-01-06T14:49:39.396Z,100238.94
2023-01-06T14:53:45.041Z,100237.16
2023-01-06T14:57:50.523Z,100239.84
2023-01-06T15:02:14.841Z,100248.66
2023-01-06T15:06:20.986Z,100239.84
2023-01-06T15:10:26.710Z,100239.84
2023-01-06T15:14:32.937Z,100236.31
2023-01-06T15:18:42.990Z,100231.91
2023-01-06T15:22:49.302Z,100231.00
2023-01-06T15:26:54.872Z,100213.41
2023-01-06T15:30:59.044Z,100212.53
2023-01-06T15:35:03.708Z,100195.78
2023-01-06T15:39:08.141Z,100194.03
2023-01-06T15:43:12.299Z,100199.25
2023-01-06T15:47:26.382Z,100200.09
2023-01-06T15:51:30.967Z,100198.31
2023-01-06T15:55:36.824Z,100206.13
2023-01-06T15:59:40.757Z,100193.81
2023-01-06T16:03:47.750Z,100197.31
2023-01-06T16:07:52.206Z,100195.53
2023-01-06T16:12:00.261Z,100195.53
2023-01-06T16:16:09.852Z,100217.47
2023-01-06T16:20:23.907Z,100220.97
2023-01-06T16:24:30.224Z,100225.31
2023-01-06T16:28:33.805Z,100234.91
2023-01-06T16:32:39.569Z,100235.72
2023-01-06T16:36:42.688Z,100240.91
2023-01-06T16:40:47.812Z,100251.44
2023-01-06T16:45:01.099Z,100251.34
2023-01-06T16:49:10.800Z,100249.50
2023-01-06T16:53:45.050Z,100248.59
2023-01-06T16:57:50.956Z,100252.09
2023-01-06T17:01:54.113Z,100260.88
2023-01-06T17:05:58.051Z,100273.06
2023-01-06T17:10:01.187Z,100272.97
2023-01-06T17:14:16.827Z,100283.38
2023-01-06T17:18:26.374Z,100281.59
2023-01-06T17:22:30.784Z,100285.06
2023-01-06T17:26:33.812Z,100281.59
2023-01-06T17:30:39.992Z,100286.84
2023-01-06T17:34:42.954Z,100298.22
2023-01-06T17:39:06.556Z,100299.06
2023-01-06T17:43:21.782Z,100302.56
2023-01-06T17:47:29.976Z,100305.13
2023-01-06T17:51:33.077Z,100310.38
2023-01-06T17:55:45.406Z,100302.50
2023-01-06T17:59:53.165Z,100305.09
2023-01-06T18:03:59.991Z,100304.19
2023-01-06T18:08:12.288Z,100296.31
2023-01-06T18:12:17.897Z,100308.66
2023-01-06T18:16:29.790Z,100305.28
2023-01-06T18:20:34.196Z,100307.91
2023-01-06T18:24:40.160Z,100316.75
2023-01-06T18:28:43.640Z,100307.16
2023-01-06T18:32:47.052Z,100321.25
2023-01-06T18:36:51.532Z,100316.03
2023-01-06T18:40:54.881Z,100307.31
2023-01-06T18:45:07.137Z,100311.78
2023-01-06T18:49:12.166Z,100309.22
2023-01-06T18:53:26.178Z,100319.84
2023-01-06T18:57:32.372Z,100319.84
2023-01-06T19:01:41.326Z,100321.63
2023-01-06T19:05:44.769Z,100322.47
2023-01-06T19:09:51.080Z,100325.13
2023-01-06T19:13:58.976Z,100323.38
2023-01-06T19:18:01.953Z,100321.59
2023-01-06T19:22:22.550Z,100318.13
2023-01-06T19:26:33.548Z,100330.34
2023-01-06T19:30:44.525Z,100328.75
2023-01-06T19:34:47.600Z,100319.19
2023-01-06T19:38:50.834Z,100322.66
2023-01-06T19:42:58.598Z,100319.03
2023-01-06T19:47:10.180Z,100327.75
2023-01-06T19:51:26.027Z,100329.44
2023-01-06T19:55:30.654Z,100331.97
2023-01-06T19:59:36.655Z,100334.56
2023-01-06T20:03:44.243Z,100336.22
2023-01-06T20:07:47.371Z,100330.91
2023-01-06T20:11:51.392Z,100334.38
2023-01-06T20:15:55.709Z,100336.06
2023-01-06T20:19:58.606Z,100338.66
2023-01-06T20:24:01.565Z,100337.72
2023-01-06T20:28:04.661Z,100349.06
2023-01-06T20:32:09.190Z,100349.94
2023-01-06T20:36:16.908Z,100358.69
2023-01-06T20:40:19.969Z,100359.53
2023-01-06T20:44:23.000Z,100362.13
2023-01-06T20:48:27.245Z,100363.91
2023-01-06T20:52:30.183Z,100369.19
2023-01-06T20:56:33.238Z,100366.63
2023-01-06T21:00:36.830Z,100363.13
2023-01-06T21:04:41.073Z,100364.00
2023-01-06T21:08:44.029Z,100355.25
2023-01-06T21:12:46.942Z,100360.47
2023-01-06T21:16:50.158Z,100353.47
2023-01-06T21:20:54.484Z,100349.06
2023-01-06T21:24:57.428Z,100349.03
2023-01-06T21:29:00.376Z,100359.56
2023-01-06T21:33:03.441Z,100356.06
2023-01-06T21:37:07.922Z,100360.44
2023-01-06T21:41:28.564Z,100356.09
2023-01-06T21:45:31.530Z,100346.47
2023-01-06T21:49:34.703Z,100356.19
2023-01-06T21:53:39.236Z,100355.28
2023-01-06T21:57:42.872Z,100353.59
2023-01-06T22:01:45.999Z,100364.13
2023-01-06T22:05:49.024Z,100366.78
2023-01-06T22:09:54.255Z,100370.34
2023-01-06T22:13:57.558Z,100370.31
2023-01-06T22:18:01.574Z,100371.19
2023-01-06T22:22:05.079Z,100372.91
2023-01-06T22:26:09.416Z,100362.34
2023-01-06T22:30:12.985Z,100364.94
2023-01-06T22:34:17.392Z,100373.72
2023-01-06T22:38:20.375Z,100363.97
2023-01-06T22:42:24.700Z,100370.97
2023-01-06T22:46:28.022Z,100373.56
2023-01-06T22:50:31.119Z,100368.28
2023-01-06T22:54:34.045Z,100369.97
2023-01-06T22:58:39.952Z,100375.22
2023-01-06T23:02:43.408Z,100371.69
2023-01-06T23:06:46.580Z,100362.84
2023-01-06T23:10:49.498Z,100353.19
2023-01-06T23:14:53.828Z,100355.75
2023-01-06T23:18:56.940Z,100358.34
2023-01-06T23:22:59.869Z,100358.31
2023-01-06T23:27:02.820Z,100368.75
2023-01-06T23:31:09.098Z,100366.91
2023-01-06T23:35:12.046Z,100374.81
2023-01-06T23:39:16.930Z,100386.03
2023-01-06T23:43:19.986Z,100381.50
2023-01-06T23:47:24.256Z,100373.50
2023-01-06T23:51:30.155Z,100376.94
2023-01-06T23:55:33.132Z,100378.69
2023-01-06T23:59:36.035Z,100389.00
